Time;durP1;ratioP1;P1;durP2;ratioP2;P2;SDS_P1;SDS_P2;PMS_P1;PMS_P2;Temp;Humidity;BMP_temperature;BMP_pressure;BME280_temperature;BME280_humidity;BME280_pressure;Samples;Min_cycle;Max_cycle;Signal;HPM_P1;HPM_P2
2021/10/14 00:01:56;;;;;;;17.70;7.77;;;12.90;91.40;;;;;;5055384;28;20449;-63
2021/10/14 00:04:23;;;;;;;11.10;8.03;;;12.90;91.40;;;;;;5055311;28;20450;-64
2021/10/14 00:06:49;;;;;;;16.30;9.20;;;12.90;91.30;;;;;;5055048;28;20445;-63
2021/10/14 00:09:17;;;;;;;23.17;9.43;;;13.00;91.30;;;;;;5055078;28;20444;-63
2021/10/14 00:11:44;;;;;;;13.27;9.07;;;13.00;91.30;;;;;;5054166;28;20430;-63
2021/10/14 00:14:11;;;;;;;13.40;8.20;;;13.00;91.40;;;;;;5054546;28;20442;-64
2021/10/14 00:16:38;;;;;;;10.70;8.53;;;13.00;91.40;;;;;;5055289;28;20445;-64
2021/10/14 00:19:05;;;;;;;12.60;7.93;;;13.00;91.30;;;;;;5054823;28;20886;-63
2021/10/14 00:21:32;;;;;;;13.83;7.77;;;13.00;91.50;;;;;;5054758;28;20441;-63
2021/10/14 00:23:58;;;;;;;17.67;7.67;;;13.00;91.40;;;;;;5054723;28;20441;-63
2021/10/14 00:26:27;;;;;;;13.77;7.77;;;13.10;91.40;;;;;;5054596;28;20473;-63
2021/10/14 00:28:53;;;;;;;8.60;7.37;;;13.10;91.40;;;;;;5054682;28;20457;-63
2021/10/14 00:31:20;;;;;;;14.50;7.17;;;13.10;91.20;;;;;;5054855;28;20445;-63
2021/10/14 00:33:47;;;;;;;10.67;7.10;;;13.10;91.20;;;;;;5054655;28;20984;-63
2021/10/14 00:36:13;;;;;;;14.07;8.10;;;13.10;91.20;;;;;;5054424;28;20470;-63
2021/10/14 00:38:40;;;;;;;8.77;6.57;;;13.00;91.00;;;;;;5054076;28;21032;-63
2021/10/14 00:41:07;;;;;;;15.73;7.30;;;13.10;91.20;;;;;;5054417;28;20457;-63
2021/10/14 00:43:35;;;;;;;10.50;7.43;;;13.00;91.00;;;;;;5054387;28;20449;-63
2021/10/14 00:46:01;;;;;;;10.50;7.40;;;13.00;90.90;;;;;;5054263;28;20488;-63
2021/10/14 00:48:28;;;;;;;12.53;8.67;;;13.10;90.80;;;;;;5054282;28;20453;-64
2021/10/14 00:50:55;;;;;;;14.23;8.10;;;13.00;90.70;;;;;;5054245;28;20934;-63
2021/10/14 00:53:22;;;;;;;14.07;7.37;;;13.00;90.80;;;;;;5054166;28;20449;-63
2021/10/14 00:55:48;;;;;;;10.70;8.10;;;13.00;90.80;;;;;;5053945;28;20480;-64
2021/10/14 00:58:15;;;;;;;12.97;7.07;;;13.00;90.80;;;;;;5054063;28;20489;-64
2021/10/14 01:00:43;;;;;;;13.90;7.33;;;13.10;90.70;;;;;;5054057;28;20481;-63
2021/10/14 01:03:10;;;;;;;8.50;6.20;;;13.10;90.40;;;;;;5054024;28;20450;-64
2021/10/14 01:05:37;;;;;;;8.87;6.80;;;13.00;90.40;;;;;;5053901;28;20544;-63
2021/10/14 01:08:04;;;;;;;15.23;7.80;;;13.00;90.40;;;;;;5053931;28;20446;-63
2021/10/14 01:10:31;;;;;;;11.27;6.90;;;13.00;90.30;;;;;;5053569;28;20454;-63
2021/10/14 01:12:58;;;;;;;9.93;6.50;;;13.00;90.30;;;;;;5053892;28;20430;-63
2021/10/14 01:15:27;;;;;;;12.07;6.60;;;12.90;90.40;;;;;;5054300;28;20473;-63
2021/10/14 01:17:56;;;;;;;10.37;6.70;;;12.90;90.10;;;;;;5053677;28;20472;-63
2021/10/14 01:20:24;;;;;;;14.50;7.97;;;12.80;90.00;;;;;;5053755;28;20449;-63
2021/10/14 01:22:52;;;;;;;8.80;6.47;;;12.80;90.10;;;;;;5053613;28;20471;-63
2021/10/14 01:25:18;;;;;;;10.50;6.77;;;12.70;90.40;;;;;;5053605;28;20549;-63
2021/10/14 01:27:46;;;;;;;10.40;6.27;;;12.70;90.20;;;;;;5053631;28;20454;-63
2021/10/14 01:30:13;;;;;;;14.70;7.70;;;12.70;90.30;;;;;;5053847;28;20496;-64
2021/10/14 01:32:40;;;;;;;10.60;6.70;;;12.60;90.40;;;;;;5053611;28;20429;-63
2021/10/14 01:35:08;;;;;;;10.40;6.77;;;12.60;90.40;;;;;;5053455;28;20473;-64
2021/10/14 01:37:36;;;;;;;9.20;6.10;;;12.60;90.70;;;;;;5053174;28;20932;-63
2021/10/14 01:40:03;;;;;;;10.97;6.40;;;12.60;90.60;;;;;;5053462;28;20438;-63
2021/10/14 01:42:30;;;;;;;15.00;7.10;;;12.60;90.90;;;;;;5053428;28;20445;-64
2021/10/14 01:44:58;;;;;;;8.53;6.20;;;12.50;90.60;;;;;;5053326;28;20544;-63
2021/10/14 01:47:25;;;;;;;7.87;5.87;;;12.50;90.60;;;;;;5053080;28;20449;-63
2021/10/14 01:49:52;;;;;;;12.30;7.10;;;12.50;90.60;;;;;;5053346;28;20437;-63
2021/10/14 01:52:18;;;;;;;9.63;7.23;;;12.50;90.50;;;;;;5053324;28;20449;-63
2021/10/14 01:54:47;;;;;;;9.67;6.70;;;12.50;90.60;;;;;;5053049;28;20481;-64
2021/10/14 01:57:13;;;;;;;11.53;7.53;;;12.50;90.80;;;;;;5053239;28;20437;-63
2021/10/14 01:59:40;;;;;;;9.90;7.17;;;12.50;90.90;;;;;;5053211;28;20469;-64
2021/10/14 02:02:07;;;;;;;10.40;6.23;;;12.50;90.80;;;;;;5052923;28;20793;-63
2021/10/14 02:04:34;;;;;;;14.33;7.67;;;12.50;90.90;;;;;;5053063;28;20470;-63
2021/10/14 02:07:01;;;;;;;11.27;6.70;;;12.50;90.40;;;;;;5053213;28;20449;-63
2021/10/14 02:09:27;;;;;;;10.13;6.67;;;12.50;90.40;;;;;;5053163;28;20445;-63
2021/10/14 02:11:55;;;;;;;9.37;6.50;;;12.40;90.50;;;;;;5053184;28;20861;-63
2021/10/14 02:14:22;;;;;;;10.40;6.60;;;12.40;90.60;;;;;;5053061;28;20449;-63
2021/10/14 02:16:49;;;;;;;7.60;6.47;;;12.40;90.30;;;;;;5053111;28;20446;-63
2021/10/14 02:19:16;;;;;;;13.53;6.73;;;12.40;90.20;;;;;;5052714;28;21014;-63
2021/10/14 02:21:43;;;;;;;11.63;7.13;;;12.30;90.50;;;;;;5053036;28;20457;-63
2021/10/14 02:24:09;;;;;;;14.63;7.87;;;12.30;90.50;;;;;;5052760;28;20433;-63
2021/10/14 02:26:36;;;;;;;9.13;6.00;;;12.30;90.40;;;;;;5052632;28;20821;-63
2021/10/14 02:29:05;;;;;;;12.00;7.33;;;12.20;90.30;;;;;;5052765;28;20430;-63
2021/10/14 02:31:32;;;;;;;12.57;7.90;;;12.20;90.40;;;;;;5052999;28;20812;-63
2021/10/14 02:33:59;;;;;;;11.13;6.53;;;12.20;90.60;;;;;;5053711;28;20851;-63
2021/10/14 02:36:26;;;;;;;10.50;7.20;;;12.10;90.80;;;;;;5056693;28;20472;-63
2021/10/14 02:38:52;;;;;;;9.33;7.13;;;12.10;91.00;;;;;;5056675;28;20481;-63
2021/10/14 02:41:19;;;;;;;8.80;6.93;;;12.20;91.20;;;;;;5056714;28;20449;-63
2021/10/14 02:43:46;;;;;;;7.57;6.80;;;12.20;91.30;;;;;;5056670;28;20443;-63
2021/10/14 02:46:14;;;;;;;8.97;7.20;;;12.20;91.60;;;;;;5056553;28;20470;-63
2021/10/14 02:48:40;;;;;;;8.97;6.60;;;12.20;91.70;;;;;;5056559;28;20445;-63
2021/10/14 02:51:07;;;;;;;12.70;8.93;;;12.10;92.50;;;;;;5056572;28;20450;-63
2021/10/14 02:53:34;;;;;;;17.63;8.90;;;12.00;92.10;;;;;;5056060;28;20494;-63
2021/10/14 02:56:00;;;;;;;9.33;8.43;;;11.90;92.40;;;;;;5056252;28;20481;-63
2021/10/14 02:58:27;;;;;;;13.50;8.70;;;11.90;92.70;;;;;;5056306;28;20855;-63
2021/10/14 03:00:54;;;;;;;11.00;8.53;;;11.90;92.80;;;;;;5056493;28;20450;-63
2021/10/14 03:03:22;;;;;;;11.10;8.30;;;12.00;92.80;;;;;;5056298;28;20476;-63
2021/10/14 03:05:49;;;;;;;9.40;8.40;;;12.00;92.90;;;;;;5056324;28;20470;-63
2021/10/14 03:08:15;;;;;;;10.33;8.97;;;11.90;92.70;;;;;;5055870;28;20934;-63
2021/10/14 03:10:42;;;;;;;17.13;9.10;;;11.90;92.90;;;;;;5056139;28;20449;-63
2021/10/14 03:13:09;;;;;;;14.37;9.30;;;11.90;92.90;;;;;;5056073;28;20445;-63
2021/10/14 03:15:36;;;;;;;9.60;7.70;;;11.90;92.90;;;;;;5055971;28;20462;-63
2021/10/14 03:18:02;;;;;;;12.90;8.50;;;11.90;92.90;;;;;;5056234;28;20448;-63
2021/10/14 03:20:30;;;;;;;10.50;8.60;;;11.80;92.70;;;;;;5055862;28;20477;-63
2021/10/14 03:22:57;;;;;;;15.27;8.37;;;11.90;92.60;;;;;;5055667;28;20495;-63
2021/10/14 03:25:24;;;;;;;10.77;7.27;;;11.90;92.40;;;;;;5055801;28;20469;-63
2021/10/14 03:27:51;;;;;;;10.17;7.00;;;11.90;92.10;;;;;;5055863;28;20426;-63
2021/10/14 03:30:17;;;;;;;10.70;7.20;;;11.90;92.10;;;;;;5055807;28;20454;-63
2021/10/14 03:32:44;;;;;;;13.27;7.10;;;11.90;91.90;;;;;;5055723;28;20503;-63
2021/10/14 03:35:11;;;;;;;11.07;7.03;;;11.80;91.60;;;;;;5055604;28;20465;-63
2021/10/14 03:37:39;;;;;;;13.83;8.60;;;11.80;91.70;;;;;;5055339;28;20939;-63
2021/10/14 03:40:07;;;;;;;10.13;6.13;;;11.80;91.80;;;;;;5055501;28;20504;-63
2021/10/14 03:42:34;;;;;;;12.17;7.30;;;11.80;91.80;;;;;;5055541;28;20445;-63
2021/10/14 03:45:00;;;;;;;8.43;7.23;;;11.80;91.70;;;;;;5054611;28;20466;-63
2021/10/14 03:47:27;;;;;;;12.27;7.30;;;11.80;91.60;;;;;;5054841;28;20449;-63
2021/10/14 03:49:54;;;;;;;10.17;6.80;;;11.80;91.60;;;;;;5055409;28;20445;-63
2021/10/14 03:52:21;;;;;;;10.63;7.80;;;11.70;91.70;;;;;;5055362;28;20453;-63
2021/10/14 03:54:49;;;;;;;15.90;7.30;;;11.70;91.70;;;;;;5055058;28;20481;-63
2021/10/14 03:57:15;;;;;;;9.73;6.33;;;11.70;91.80;;;;;;5054984;28;20896;-63
2021/10/14 03:59:42;;;;;;;10.17;7.30;;;11.70;91.80;;;;;;5055130;28;20477;-63
2021/10/14 04:02:09;;;;;;;17.23;7.60;;;11.70;91.90;;;;;;5055449;28;20441;-63
2021/10/14 04:04:36;;;;;;;11.73;7.20;;;11.70;91.90;;;;;;5054737;28;20836;-63
2021/10/14 04:07:03;;;;;;;8.83;7.00;;;11.70;91.80;;;;;;5055103;28;20465;-63
2021/10/14 04:09:29;;;;;;;9.80;7.83;;;11.70;92.00;;;;;;5055024;28;20862;-63
2021/10/14 04:11:57;;;;;;;10.37;6.70;;;11.70;92.10;;;;;;5054684;28;20963;-63
2021/10/14 04:14:24;;;;;;;12.07;8.00;;;11.70;91.90;;;;;;5054878;28;20453;-64
2021/10/14 04:16:51;;;;;;;16.70;8.20;;;11.70;92.00;;;;;;5055134;28;20445;-63
2021/10/14 04:19:18;;;;;;;11.60;8.37;;;11.70;91.90;;;;;;5054781;28;20880;-63
2021/10/14 04:21:45;;;;;;;17.53;8.90;;;11.70;92.00;;;;;;5054833;28;20430;-63
2021/10/14 04:24:12;;;;;;;19.00;9.10;;;11.70;92.20;;;;;;5054686;28;20455;-65
2021/10/14 04:26:38;;;;;;;14.03;8.50;;;11.70;92.20;;;;;;5054739;28;20807;-63
2021/10/14 04:29:07;;;;;;;18.60;11.47;;;11.70;92.10;;;;;;5054665;28;20457;-63
2021/10/14 04:31:35;;;;;;;12.50;9.23;;;11.70;92.10;;;;;;5054484;28;20453;-63
2021/10/14 04:34:02;;;;;;;11.77;9.00;;;11.70;92.10;;;;;;5054297;28;20441;-63
2021/10/14 04:36:29;;;;;;;16.97;9.80;;;11.70;92.10;;;;;;5054738;28;20461;-63
2021/10/14 04:38:57;;;;;;;14.70;10.57;;;11.70;91.80;;;;;;5054398;28;20481;-63
2021/10/14 04:41:23;;;;;;;16.33;10.37;;;11.70;91.90;;;;;;5054396;28;20445;-63
2021/10/14 04:43:50;;;;;;;20.03;10.50;;;11.70;91.90;;;;;;5054463;28;20453;-63
2021/10/14 04:46:20;;;;;;;20.50;11.40;;;11.70;91.80;;;;;;5054339;28;20466;-63
2021/10/14 04:48:47;;;;;;;22.00;9.77;;;11.70;91.90;;;;;;5054094;28;20438;-63
2021/10/14 04:51:13;;;;;;;18.43;10.00;;;11.70;92.00;;;;;;5054209;28;20815;-63
2021/10/14 04:53:40;;;;;;;16.27;9.73;;;11.80;92.10;;;;;;5054212;28;20441;-63
2021/10/14 04:56:07;;;;;;;14.03;10.20;;;11.80;92.20;;;;;;5053693;28;20477;-64
2021/10/14 04:58:34;;;;;;;21.63;11.50;;;11.90;92.10;;;;;;5053745;28;20842;-64
2021/10/14 05:01:00;;;;;;;15.33;11.40;;;11.90;91.90;;;;;;5053707;28;20994;-63
2021/10/14 05:03:29;;;;;;;14.53;11.30;;;11.90;92.10;;;;;;5053817;28;20445;-63
2021/10/14 05:05:55;;;;;;;16.73;11.33;;;11.90;92.20;;;;;;5053880;28;20465;-63
2021/10/14 05:08:22;;;;;;;15.17;10.97;;;11.90;92.20;;;;;;5053910;28;20452;-63
2021/10/14 05:10:49;;;;;;;19.30;11.83;;;11.90;92.10;;;;;;5053898;28;20461;-63
2021/10/14 05:13:15;;;;;;;22.47;11.67;;;11.90;92.10;;;;;;5053557;28;20456;-63
2021/10/14 05:15:42;;;;;;;20.17;13.00;;;12.00;92.10;;;;;;5053740;28;20473;-64
2021/10/14 05:18:10;;;;;;;18.90;12.20;;;12.00;92.10;;;;;;5053446;28;20939;-63
2021/10/14 05:20:38;;;;;;;18.07;12.20;;;11.90;92.10;;;;;;5053746;28;20481;-63
2021/10/14 05:23:05;;;;;;;17.70;11.90;;;11.90;92.20;;;;;;5053503;28;20854;-63
2021/10/14 05:25:31;;;;;;;17.00;12.90;;;11.90;92.40;;;;;;5053686;28;20469;-63
2021/10/14 05:27:58;;;;;;;23.10;12.87;;;12.00;92.40;;;;;;5053617;28;20447;-63
2021/10/14 05:30:25;;;;;;;16.10;13.00;;;11.90;92.40;;;;;;5053846;28;20447;-63
2021/10/14 05:32:52;;;;;;;21.17;13.43;;;12.00;92.40;;;;;;5053614;28;20476;-63
2021/10/14 05:35:19;;;;;;;21.03;14.77;;;12.00;92.50;;;;;;5053462;28;20982;-64
2021/10/14 05:37:47;;;;;;;21.00;14.83;;;12.00;92.40;;;;;;5053728;28;20446;-63
2021/10/14 05:40:13;;;;;;;22.80;16.17;;;12.00;92.60;;;;;;5053341;28;20478;-63
2021/10/14 05:42:40;;;;;;;27.53;16.87;;;12.00;92.70;;;;;;5053445;28;20450;-63
2021/10/14 05:45:08;;;;;;;26.10;16.90;;;12.00;92.90;;;;;;5053539;28;20461;-63
2021/10/14 05:47:34;;;;;;;24.17;17.73;;;12.00;93.20;;;;;;5053450;28;20453;-63
2021/10/14 05:50:01;;;;;;;27.93;18.03;;;11.90;93.40;;;;;;5053344;28;20438;-63
2021/10/14 05:52:28;;;;;;;21.97;17.30;;;11.90;93.80;;;;;;5053330;28;20453;-63
2021/10/14 05:54:59;;;;;;;29.77;21.00;;;11.90;94.00;;;;;;5053136;28;20489;-63
2021/10/14 05:57:26;;;;;;;25.67;19.93;;;11.90;94.10;;;;;;5053348;28;20437;-63
2021/10/14 05:59:52;;;;;;;26.57;20.70;;;11.90;94.40;;;;;;5053161;28;20484;-63
2021/10/14 06:02:19;;;;;;;27.20;21.27;;;11.90;94.40;;;;;;5053188;28;20446;-63
2021/10/14 06:04:46;;;;;;;28.70;21.80;;;11.80;94.50;;;;;;5053153;28;20540;-63
2021/10/14 06:07:12;;;;;;;31.23;20.47;;;11.80;94.60;;;;;;5053264;28;20448;-63
2021/10/14 06:09:40;;;;;;;30.27;19.80;;;11.80;94.70;;;;;;5055072;28;20445;-63
2021/10/14 06:12:08;;;;;;;29.73;21.83;;;11.70;95.00;;;;;;5057407;28;20532;-63
2021/10/14 06:14:35;;;;;;;30.23;20.87;;;11.70;95.20;;;;;;5057215;28;20469;-63
2021/10/14 06:17:02;;;;;;;29.30;22.10;;;11.70;95.30;;;;;;5057229;28;20448;-63
2021/10/14 06:19:29;;;;;;;33.13;20.73;;;11.70;95.40;;;;;;5057104;28;20477;-63
2021/10/14 06:21:56;;;;;;;32.43;21.83;;;11.70;95.30;;;;;;5057106;28;20446;-63
2021/10/14 06:24:22;;;;;;;32.20;20.00;;;11.70;95.30;;;;;;5056604;28;20961;-63
2021/10/14 06:26:49;;;;;;;28.53;20.43;;;11.70;95.20;;;;;;5057346;28;20441;-63
2021/10/14 06:29:17;;;;;;;30.80;18.03;;;11.70;95.20;;;;;;5056752;28;20787;-63
2021/10/14 06:31:44;;;;;;;25.30;19.40;;;11.70;95.20;;;;;;5056928;28;20449;-63
2021/10/14 06:34:11;;;;;;;28.80;19.03;;;11.70;95.40;;;;;;5056858;28;20452;-63
2021/10/14 06:36:37;;;;;;;26.70;18.70;;;11.70;95.30;;;;;;5058769;28;20492;-63
2021/10/14 06:39:04;;;;;;;23.73;17.67;;;11.70;95.50;;;;;;5056843;28;20441;-63
2021/10/14 06:41:31;;;;;;;27.57;18.40;;;11.60;95.50;;;;;;5056430;28;21009;-63
2021/10/14 06:43:59;;;;;;;28.33;16.47;;;11.60;95.70;;;;;;5056749;28;20457;-63
2021/10/14 06:46:27;;;;;;;26.20;16.40;;;11.60;95.50;;;;;;5056640;28;20488;-63
2021/10/14 06:48:53;;;;;;;19.40;15.57;;;11.50;95.50;;;;;;5056655;28;20442;-63
2021/10/14 06:51:20;;;;;;;27.47;16.90;;;11.60;95.60;;;;;;5056513;28;20456;-63
2021/10/14 06:53:47;;;;;;;27.93;16.20;;;11.50;95.50;;;;;;5056593;28;20850;-63
2021/10/14 06:56:14;;;;;;;26.53;15.40;;;11.60;95.60;;;;;;5056212;28;20485;-63
2021/10/14 06:58:40;;;;;;;24.07;15.20;;;11.60;95.50;;;;;;5056127;28;20452;-63
2021/10/14 07:01:07;;;;;;;22.50;15.53;;;11.60;95.40;;;;;;5056015;28;21017;-63
2021/10/14 07:03:35;;;;;;;28.03;16.57;;;11.60;95.60;;;;;;5056302;28;20449;-63
2021/10/14 07:06:02;;;;;;;26.67;17.37;;;11.60;95.50;;;;;;5056213;28;20813;-63
2021/10/14 07:08:29;;;;;;;25.00;17.23;;;11.60;95.50;;;;;;5056217;28;20445;-64
2021/10/14 07:10:55;;;;;;;23.33;17.30;;;11.70;96.00;;;;;;5056182;28;20448;-64
2021/10/14 07:13:23;;;;;;;24.33;17.47;;;11.70;95.60;;;;;;5056146;28;20503;-64
2021/10/14 07:15:50;;;;;;;27.77;17.40;;;11.80;95.40;;;;;;5056046;28;20560;-64
2021/10/14 07:18:17;;;;;;;26.10;16.17;;;11.70;95.20;;;;;;5056041;28;20452;-64
2021/10/14 07:20:45;;;;;;;24.73;16.77;;;11.80;95.60;;;;;;5055677;28;20488;-64
2021/10/14 07:23:13;;;;;;;30.37;18.30;;;11.80;95.20;;;;;;5055918;28;20460;-64
2021/10/14 07:25:40;;;;;;;25.93;16.90;;;11.80;95.80;;;;;;5055821;28;20465;-64
2021/10/14 07:28:07;;;;;;;23.00;17.00;;;11.80;95.30;;;;;;5055861;28;20457;-64
2021/10/14 07:30:35;;;;;;;30.00;17.20;;;11.80;95.20;;;;;;5055784;28;20519;-64
2021/10/14 07:33:04;;;;;;;32.17;16.87;;;11.80;95.20;;;;;;5055498;28;20436;-64
2021/10/14 07:35:32;;;;;;;20.47;16.23;;;11.90;95.10;;;;;;5055687;28;20466;-64
2021/10/14 07:38:03;;;;;;;20.17;16.53;;;11.90;95.10;;;;;;5055741;28;20430;-63
2021/10/14 07:40:30;;;;;;;31.37;18.77;;;12.00;95.20;;;;;;5055551;28;20472;-64
2021/10/14 07:42:57;;;;;;;23.13;16.53;;;12.00;95.00;;;;;;5055563;28;20449;-64
2021/10/14 07:45:24;;;;;;;22.23;16.10;;;12.00;95.10;;;;;;5055234;28;20465;-64
2021/10/14 07:47:51;;;;;;;24.00;16.20;;;12.00;94.90;;;;;;5055469;28;20459;-64
2021/10/14 07:50:17;;;;;;;20.80;15.60;;;12.00;95.10;;;;;;5055414;28;20539;-64
2021/10/14 07:52:44;;;;;;;24.07;16.70;;;12.10;95.10;;;;;;5055643;28;20432;-64
2021/10/14 07:55:12;;;;;;;22.53;15.50;;;12.10;95.10;;;;;;5055040;28;20999;-64
2021/10/14 07:57:39;;;;;;;25.77;17.00;;;12.10;95.10;;;;;;5055383;28;20469;-64
2021/10/14 08:00:08;;;;;;;26.07;18.00;;;12.10;95.20;;;;;;5055270;28;20469;-64
2021/10/14 08:02:34;;;;;;;28.80;18.13;;;12.10;95.40;;;;;;5055275;28;20437;-64
2021/10/14 08:05:01;;;;;;;20.57;17.43;;;12.10;94.90;;;;;;5055568;28;20481;-64
2021/10/14 08:07:28;;;;;;;21.93;16.10;;;12.10;95.10;;;;;;5055190;28;20453;-64
2021/10/14 08:09:55;;;;;;;21.13;16.97;;;12.10;95.10;;;;;;5055361;28;20446;-64
2021/10/14 08:12:23;;;;;;;21.10;16.37;;;12.20;95.00;;;;;;5055106;28;20446;-64
2021/10/14 08:14:50;;;;;;;20.53;17.43;;;12.20;95.20;;;;;;5054938;28;20473;-64
2021/10/14 08:17:17;;;;;;;22.63;17.77;;;12.20;95.10;;;;;;5055041;28;20451;-64
2021/10/14 08:19:44;;;;;;;24.63;18.33;;;12.20;95.00;;;;;;5054874;28;20484;-64
2021/10/14 08:22:11;;;;;;;20.53;17.47;;;12.20;95.00;;;;;;5054938;28;20835;-64
2021/10/14 08:24:39;;;;;;;23.07;16.60;;;12.30;94.90;;;;;;5054843;28;20473;-64
2021/10/14 08:27:06;;;;;;;28.27;16.70;;;12.30;94.80;;;;;;5054876;28;20544;-64
2021/10/14 08:29:34;;;;;;;23.77;16.40;;;12.30;94.90;;;;;;5054697;28;20450;-64
2021/10/14 08:32:02;;;;;;;28.00;16.87;;;12.30;94.80;;;;;;5053995;28;20437;-64
2021/10/14 08:34:29;;;;;;;23.40;17.37;;;12.30;94.90;;;;;;5054814;28;20452;-64
2021/10/14 08:36:56;;;;;;;25.13;18.40;;;12.30;94.90;;;;;;5054540;28;20491;-64
2021/10/14 08:39:23;;;;;;;24.37;18.60;;;12.30;95.00;;;;;;5054614;28;20426;-64
2021/10/14 08:41:50;;;;;;;21.90;17.00;;;12.40;95.10;;;;;;5054617;28;20485;-64
2021/10/14 08:44:24;;;;;;;27.00;17.20;;;12.40;95.20;;;;;;5054629;28;20418;-65
2021/10/14 08:46:53;;;;;;;26.37;17.73;;;12.40;95.00;;;;;;5054173;28;20456;-64
2021/10/14 08:49:20;;;;;;;21.10;17.43;;;12.40;95.20;;;;;;5054547;28;20445;-64
2021/10/14 08:51:47;;;;;;;23.90;17.30;;;12.50;95.10;;;;;;5054315;28;20464;-64
2021/10/14 08:54:14;;;;;;;23.40;17.60;;;12.50;95.10;;;;;;5054214;28;20449;-65
2021/10/14 08:56:43;;;;;;;23.53;16.30;;;12.60;95.00;;;;;;5054046;28;20461;-64
2021/10/14 08:59:12;;;;;;;23.00;16.90;;;12.60;94.90;;;;;;5054099;28;20442;-64
2021/10/14 09:01:40;;;;;;;21.80;17.00;;;12.60;94.90;;;;;;5054105;28;20477;-64
2021/10/14 09:04:18;;;;;;;28.30;17.37;;;12.60;94.90;;;;;;5054145;28;20497;-64
2021/10/14 09:06:45;;;;;;;28.70;18.13;;;12.60;94.80;;;;;;5054079;28;20499;-64
2021/10/14 09:09:12;;;;;;;21.20;16.93;;;12.60;94.90;;;;;;5053799;28;20888;-64
2021/10/14 09:11:39;;;;;;;28.40;18.90;;;12.60;94.90;;;;;;5053985;28;20445;-64
2021/10/14 09:14:08;;;;;;;24.27;18.87;;;12.70;94.90;;;;;;5053897;28;20441;-64
2021/10/14 09:16:37;;;;;;;24.43;19.30;;;12.70;94.70;;;;;;5053838;28;20560;-64
2021/10/14 09:19:16;;;;;;;24.10;16.97;;;12.70;94.80;;;;;;5053788;28;20441;-64
2021/10/14 09:21:47;;;;;;;20.80;17.80;;;12.70;94.60;;;;;;5053418;28;21052;-64
2021/10/14 09:24:27;;;;;;;24.10;17.57;;;12.80;94.50;;;;;;5053902;28;20445;-64
2021/10/14 09:26:55;;;;;;;25.73;18.70;;;13.00;94.50;;;;;;5053706;28;20477;-64
2021/10/14 09:29:25;;;;;;;27.40;18.47;;;13.10;94.10;;;;;;5053273;28;20445;-64
2021/10/14 09:31:55;;;;;;;23.10;17.77;;;13.20;93.80;;;;;;5053633;28;20449;-64
2021/10/14 09:34:37;;;;;;;21.53;15.80;;;13.30;93.40;;;;;;5053912;28;20434;-64
2021/10/14 09:37:07;;;;;;;17.73;14.73;;;13.50;92.80;;;;;;5053659;28;20500;-64
2021/10/14 09:39:33;;;;;;;22.97;16.23;;;13.50;92.70;;;;;;5053244;28;20604;-64
2021/10/14 09:42:00;;;;;;;21.67;16.00;;;13.50;92.70;;;;;;5053469;28;20828;-64
2021/10/14 09:44:27;;;;;;;20.57;14.50;;;13.60;92.80;;;;;;5054095;28;20442;-67
2021/10/14 09:46:55;;;;;;;17.90;14.80;;;13.60;92.70;;;;;;5053524;28;20434;-68
2021/10/14 09:49:27;;;;;;;18.43;14.30;;;13.70;92.40;;;;;;5053495;28;20429;-67
2021/10/14 09:52:00;;;;;;;18.97;15.00;;;13.70;91.90;;;;;;5053423;28;20480;-68
2021/10/14 09:54:27;;;;;;;22.03;14.70;;;13.70;91.90;;;;;;5053223;28;20496;-67
2021/10/14 09:56:54;;;;;;;19.27;12.87;;;13.70;91.90;;;;;;5053443;28;20438;-67
2021/10/14 09:59:21;;;;;;;20.30;12.80;;;13.70;91.60;;;;;;5053472;28;20430;-67
2021/10/14 10:01:49;;;;;;;18.20;13.73;;;13.70;91.80;;;;;;5053284;28;20461;-67
2021/10/14 10:04:17;;;;;;;23.70;13.80;;;13.70;91.90;;;;;;5053197;28;20519;-67
2021/10/14 10:06:47;;;;;;;17.00;13.17;;;13.70;91.90;;;;;;5053399;28;20540;-67
2021/10/14 10:09:18;;;;;;;21.57;15.07;;;13.70;91.70;;;;;;5054256;28;20904;-67
2021/10/14 10:11:49;;;;;;;19.87;13.47;;;13.70;91.70;;;;;;5053265;28;20422;-67
2021/10/14 10:14:17;;;;;;;19.83;13.40;;;13.80;91.80;;;;;;5053134;28;20434;-68
2021/10/14 10:16:55;;;;;;;19.90;12.50;;;13.80;91.50;;;;;;5054101;28;20438;-67
2021/10/14 10:19:40;;;;;;;20.27;13.73;;;13.70;91.60;;;;;;5053250;28;20492;-67
2021/10/14 10:22:08;;;;;;;15.87;12.90;;;13.70;91.90;;;;;;5052858;28;20970;-67
2021/10/14 10:24:36;;;;;;;22.60;14.13;;;13.80;92.20;;;;;;5053162;28;20453;-67
2021/10/14 10:27:08;;;;;;;16.47;13.27;;;13.90;92.00;;;;;;5053227;28;20452;-67
2021/10/14 10:29:43;;;;;;;18.90;12.70;;;13.90;92.10;;;;;;5053253;28;20529;-67
2021/10/14 10:32:22;;;;;;;16.43;11.93;;;13.90;92.20;;;;;;5053275;28;20440;-67
2021/10/14 10:34:53;;;;;;;13.97;10.80;;;13.90;91.50;;;;;;5053043;28;20515;-67
2021/10/14 10:37:22;;;;;;;15.60;11.40;;;13.90;91.50;;;;;;5053287;28;20438;-67
2021/10/14 10:39:54;;;;;;;16.00;11.50;;;13.90;91.60;;;;;;5053000;28;20491;-67
2021/10/14 10:42:25;;;;;;;23.00;13.27;;;13.90;91.40;;;;;;5053093;28;20461;-67
2021/10/14 10:44:52;;;;;;;22.43;11.87;;;14.00;91.60;;;;;;5052568;28;20575;-67
2021/10/14 10:47:39;;;;;;;13.90;11.23;;;14.10;91.80;;;;;;5052905;28;20441;-67
2021/10/14 10:50:08;;;;;;;16.07;10.03;;;14.10;91.00;;;;;;5052830;28;20449;-67
2021/10/14 10:52:37;;;;;;;15.40;10.03;;;14.10;90.70;;;;;;5052821;28;20453;-67
2021/10/14 10:55:13;;;;;;;21.80;9.73;;;14.10;90.60;;;;;;5053458;28;20478;-67
2021/10/14 10:57:49;;;;;;;12.60;9.70;;;14.20;90.50;;;;;;5056538;28;20429;-67
2021/10/14 11:00:17;;;;;;;20.40;9.83;;;14.20;90.50;;;;;;5056210;28;20444;-67
2021/10/14 11:02:44;;;;;;;14.30;9.73;;;14.20;90.60;;;;;;5056379;28;20473;-67
2021/10/14 11:05:12;;;;;;;14.40;10.00;;;14.20;90.40;;;;;;5056359;28;20829;-67
2021/10/14 11:07:39;;;;;;;20.67;9.83;;;14.30;90.50;;;;;;5056535;28;20449;-67
2021/10/14 11:10:08;;;;;;;13.63;10.20;;;14.40;90.30;;;;;;5056230;28;20460;-68
2021/10/14 11:12:35;;;;;;;13.43;9.30;;;14.50;90.40;;;;;;5056286;28;20520;-68
2021/10/14 11:15:14;;;;;;;19.57;9.67;;;14.50;90.20;;;;;;5056331;28;20819;-67
2021/10/14 11:17:41;;;;;;;12.63;9.63;;;14.60;90.20;;;;;;5056158;28;20476;-67
2021/10/14 11:20:09;;;;;;;19.20;9.93;;;14.70;89.70;;;;;;5056095;28;20442;-67
2021/10/14 11:22:36;;;;;;;12.73;10.43;;;14.60;89.30;;;;;;5055994;28;20488;-68
2021/10/14 11:25:16;;;;;;;14.70;9.90;;;14.70;89.80;;;;;;5055901;28;20968;-67
2021/10/14 11:27:45;;;;;;;16.37;10.43;;;14.80;90.40;;;;;;5055942;28;20437;-67
2021/10/14 11:30:18;;;;;;;14.57;9.33;;;14.80;89.40;;;;;;5055599;28;20958;-68
2021/10/14 11:32:49;;;;;;;17.10;9.70;;;14.90;89.60;;;;;;5055865;28;20457;-68
2021/10/14 11:35:16;;;;;;;17.00;10.10;;;15.00;89.40;;;;;;5055780;28;20826;-67
2021/10/14 11:37:43;;;;;;;15.00;10.27;;;15.20;89.50;;;;;;5055699;28;20468;-67
2021/10/14 11:40:11;;;;;;;13.50;8.97;;;15.30;88.20;;;;;;5055663;28;20453;-68
2021/10/14 11:42:39;;;;;;;14.50;9.47;;;15.40;88.00;;;;;;5055532;28;20473;-68
2021/10/14 11:45:09;;;;;;;15.67;9.73;;;15.50;86.50;;;;;;5055592;28;20465;-68
2021/10/14 11:47:35;;;;;;;12.40;9.53;;;15.60;86.70;;;;;;5055522;28;20442;-68
2021/10/14 11:50:04;;;;;;;16.20;9.83;;;15.80;86.20;;;;;;5055611;28;20446;-68
2021/10/14 11:52:31;;;;;;;12.30;8.90;;;15.90;85.80;;;;;;5055513;28;20475;-68
2021/10/14 11:55:02;;;;;;;13.23;9.00;;;16.00;84.60;;;;;;5055153;28;20489;-67
2021/10/14 11:57:30;;;;;;;19.37;10.00;;;16.20;84.40;;;;;;5055166;28;20919;-68
2021/10/14 11:59:59;;;;;;;9.43;8.47;;;16.50;83.40;;;;;;5055636;28;20477;-68
2021/10/14 12:02:28;;;;;;;12.30;8.90;;;16.80;81.70;;;;;;5055177;28;20488;-68
2021/10/14 12:04:56;;;;;;;11.17;9.47;;;17.10;80.90;;;;;;5054880;28;20469;-68
2021/10/14 12:07:25;;;;;;;11.03;9.10;;;17.50;78.70;;;;;;5054222;28;20446;-68
2021/10/14 12:09:53;;;;;;;13.23;8.63;;;17.70;78.00;;;;;;5055577;28;20570;-68
2021/10/14 12:12:21;;;;;;;11.30;8.93;;;18.00;76.30;;;;;;5055156;28;20445;-68
2021/10/14 12:15:00;;;;;;;12.77;8.70;;;18.00;75.50;;;;;;5054935;28;20465;-68
2021/10/14 12:17:37;;;;;;;12.50;8.97;;;18.50;75.60;;;;;;5055647;28;20434;-68
2021/10/14 12:20:11;;;;;;;10.20;8.07;;;19.20;70.80;;;;;;5055078;28;20433;-68
2021/10/14 12:22:41;;;;;;;11.87;8.60;;;19.60;69.60;;;;;;5054829;28;20466;-68
2021/10/14 12:25:08;;;;;;;11.93;8.57;;;20.10;69.00;;;;;;5054802;28;20469;-68
2021/10/14 12:27:43;;;;;;;12.83;8.80;;;20.40;66.70;;;;;;5054463;28;20821;-68
2021/10/14 12:30:20;;;;;;;10.37;8.80;;;20.70;66.00;;;;;;5054755;28;20452;-68
2021/10/14 12:32:47;;;;;;;9.10;7.87;;;20.90;63.60;;;;;;5054714;28;20513;-68
2021/10/14 12:35:14;;;;;;;11.67;9.13;;;21.00;64.00;;;;;;5054317;28;21007;-68
2021/10/14 12:37:42;;;;;;;12.13;8.10;;;21.00;62.80;;;;;;5054569;28;20448;-68